createdAt,value
2023-02-03T00:04:52.880Z,83.48
2023-02-03T00:09:56.976Z,85.52
2023-02-03T00:15:05.810Z,84.01
2023-02-03T00:20:08.926Z,85.55
2023-02-03T00:25:12.031Z,86.70
2023-02-03T00:30:34.935Z,87.73
2023-02-03T00:35:40.560Z,88.05
2023-02-03T00:40:42.765Z,88.88
2023-02-03T00:45:45.193Z,89.81
2023-02-03T00:50:50.425Z,87.51
2023-02-03T00:55:52.967Z,86.31
2023-02-03T01:01:00.028Z,87.13
2023-02-03T01:06:14.775Z,87.40
2023-02-03T01:11:25.573Z,88.52
2023-02-03T01:16:31.483Z,89.22
2023-02-03T01:21:36.246Z,89.72
2023-02-03T01:26:41.009Z,89.34
2023-02-03T01:31:43.180Z,89.56
2023-02-03T01:36:47.274Z,88.17
2023-02-03T01:41:49.201Z,88.28
2023-02-03T01:46:51.834Z,86.94
2023-02-03T01:51:56.599Z,85.31
2023-02-03T01:57:04.850Z,84.51
2023-02-03T02:02:08.465Z,84.39
2023-02-03T02:07:12.123Z,84.58
2023-02-03T02:12:16.874Z,84.72
2023-02-03T02:17:55.516Z,84.34
2023-02-03T02:23:19.570Z,84.13
2023-02-03T02:28:52.456Z,85.69
2023-02-03T02:34:23.512Z,86.01
2023-02-03T02:39:50.288Z,86.86
2023-02-03T02:45:05.341Z,87.54
2023-02-03T02:50:16.793Z,87.63
2023-02-03T02:55:24.760Z,85.90
2023-02-03T03:00:31.424Z,84.19
2023-02-03T03:05:34.575Z,83.76
2023-02-03T03:10:41.751Z,83.29
2023-02-03T03:15:45.993Z,82.80
2023-02-03T03:20:51.752Z,82.68
2023-02-03T03:26:02.451Z,82.45
2023-02-03T03:31:05.481Z,82.07
2023-02-03T03:36:26.198Z,82.40
2023-02-03T03:41:55.778Z,82.59
2023-02-03T03:47:29.290Z,82.47
2023-02-03T03:52:36.124Z,82.61
2023-02-03T03:57:56.814Z,82.42
2023-02-03T04:03:05.184Z,82.34
2023-02-03T04:08:07.779Z,82.61
2023-02-03T04:13:11.343Z,82.65
2023-02-03T04:18:15.552Z,82.55
2023-02-03T04:23:18.140Z,82.86
2023-02-03T04:28:20.177Z,82.97
2023-02-03T04:33:22.501Z,82.65
2023-02-03T04:38:26.386Z,82.48
2023-02-03T04:43:29.852Z,82.49
2023-02-03T04:48:33.566Z,82.70
2023-02-03T04:53:36.012Z,82.99
2023-02-03T04:58:39.211Z,83.22
2023-02-03T05:03:41.361Z,82.70
2023-02-03T05:08:43.973Z,82.97
2023-02-03T05:13:46.963Z,82.74
2023-02-03T05:18:49.449Z,82.80
2023-02-03T05:23:54.585Z,82.72
2023-02-03T05:28:57.706Z,82.55
2023-02-03T05:34:00.116Z,82.47
2023-02-03T05:39:02.092Z,82.36
2023-02-03T05:44:06.680Z,82.24
2023-02-03T05:49:09.512Z,82.15
2023-02-03T05:54:11.591Z,84.14
2023-02-03T05:59:13.861Z,83.25
2023-02-03T06:04:16.927Z,82.04
2023-02-03T06:09:18.866Z,81.58
2023-02-03T06:14:21.143Z,81.21
2023-02-03T06:19:24.331Z,80.69
2023-02-03T06:24:27.123Z,80.20
2023-02-03T06:29:29.042Z,80.23
2023-02-03T06:34:32.924Z,79.83
2023-02-03T06:39:35.618Z,78.38
2023-02-03T06:44:38.139Z,78.56
2023-02-03T06:49:43.185Z,78.64
2023-02-03T06:54:45.622Z,79.20
2023-02-03T06:59:47.786Z,79.68
2023-02-03T07:04:52.833Z,77.70
2023-02-03T07:09:57.500Z,77.70
2023-02-03T07:14:59.430Z,77.03
2023-02-03T07:20:02.066Z,75.76
2023-02-03T07:25:07.049Z,75.05
2023-02-03T07:30:13.075Z,74.93
2023-02-03T07:35:16.045Z,74.50
2023-02-03T07:40:19.008Z,74.64
2023-02-03T07:45:22.263Z,74.76
2023-02-03T07:50:24.355Z,74.66
2023-02-03T07:55:26.665Z,75.02
2023-02-03T08:00:29.281Z,74.70
2023-02-03T08:05:31.752Z,74.66
2023-02-03T08:10:33.824Z,74.33
2023-02-03T08:15:36.357Z,74.13
2023-02-03T08:20:40.968Z,74.76
2023-02-03T08:25:43.078Z,76.24
2023-02-03T08:30:44.987Z,77.23
2023-02-03T08:35:51.255Z,78.41
2023-02-03T08:40:53.321Z,79.43
2023-02-03T08:45:55.157Z,80.27
2023-02-03T08:51:01.350Z,80.62
2023-02-03T08:56:08.456Z,81.42
2023-02-03T09:01:13.844Z,80.83
2023-02-03T09:06:17.231Z,81.13
2023-02-03T09:11:31.454Z,81.56
2023-02-03T09:16:35.833Z,81.71
2023-02-03T09:21:40.878Z,82.10
2023-02-03T09:26:56.403Z,81.83
2023-02-03T09:32:07.004Z,82.23
2023-02-03T09:37:12.248Z,82.55
2023-02-03T09:43:10.443Z,83.01
2023-02-03T09:48:25.176Z,83.28
2023-02-03T09:53:48.710Z,83.59
2023-02-03T09:58:51.099Z,84.11
2023-02-03T10:04:23.384Z,84.61
2023-02-03T10:09:44.311Z,84.35
2023-02-03T10:15:32.355Z,84.38
2023-02-03T10:20:58.961Z,84.30
2023-02-03T10:26:27.270Z,84.25
2023-02-03T10:31:36.830Z,84.48
2023-02-03T10:37:23.870Z,84.96
2023-02-03T10:42:46.391Z,85.46
2023-02-03T10:47:53.827Z,85.58
2023-02-03T10:53:40.193Z,85.66
2023-02-03T10:58:54.430Z,85.82
2023-02-03T11:04:03.702Z,85.93
2023-02-03T11:09:29.137Z,86.06
2023-02-03T11:14:39.262Z,86.18
2023-02-03T11:19:46.780Z,86.12
2023-02-03T11:24:48.863Z,86.08
2023-02-03T11:30:15.684Z,85.91
2023-02-03T11:35:27.052Z,85.88
2023-02-03T11:40:34.854Z,85.69
2023-02-03T11:45:54.863Z,85.88
2023-02-03T11:51:14.758Z,85.72
2023-02-03T11:56:36.044Z,85.66
2023-02-03T12:02:07.950Z,85.54
2023-02-03T12:07:37.365Z,85.59
2023-02-03T12:13:20.404Z,85.70
2023-02-03T12:18:46.682Z,85.80
2023-02-03T12:24:08.693Z,85.98
2023-02-03T12:29:32.480Z,86.10
2023-02-03T12:34:41.375Z,86.43
2023-02-03T12:39:53.004Z,86.43
2023-02-03T12:45:02.512Z,86.51
2023-02-03T12:50:21.957Z,86.59
2023-02-03T12:55:46.501Z,86.77
2023-02-03T13:01:01.369Z,86.99
2023-02-03T13:06:15.995Z,87.19
2023-02-03T13:11:39.023Z,87.39
2023-02-03T13:16:46.089Z,87.71
2023-02-03T13:21:49.982Z,88.06
2023-02-03T13:27:00.762Z,88.50
2023-02-03T13:32:27.218Z,88.83
2023-02-03T13:37:48.080Z,88.96
2023-02-03T13:43:36.884Z,88.92
2023-02-03T13:48:46.077Z,88.85
2023-02-03T13:53:50.894Z,88.87
2023-02-03T13:59:04.024Z,88.93
2023-02-03T14:04:26.714Z,89.00
2023-02-03T14:09:46.274Z,89.00
2023-02-03T14:15:19.404Z,88.96
2023-02-03T14:20:51.261Z,89.11
2023-02-03T14:26:09.197Z,89.19
2023-02-03T14:31:19.563Z,89.19
2023-02-03T14:36:44.360Z,89.31
2023-02-03T14:42:19.627Z,89.33
2023-02-03T14:48:21.203Z,88.95
2023-02-03T14:53:42.016Z,89.05
2023-02-03T14:59:04.413Z,89.29
2023-02-03T15:04:25.327Z,89.46
2023-02-03T15:09:47.469Z,89.61
2023-02-03T15:14:50.308Z,90.08
2023-02-03T15:19:56.185Z,90.07
2023-02-03T15:25:04.989Z,89.67
2023-02-03T15:30:28.262Z,89.70
2023-02-03T15:35:34.132Z,89.99
2023-02-03T15:40:42.029Z,90.02
2023-02-03T15:45:52.418Z,90.23
2023-02-03T15:51:03.017Z,90.88
2023-02-03T15:56:21.810Z,90.77
2023-02-03T16:01:35.969Z,91.00
2023-02-03T16:06:44.090Z,90.72
2023-02-03T16:12:25.608Z,90.85
2023-02-03T16:17:37.006Z,91.32
2023-02-03T16:22:55.248Z,91.10
2023-02-03T16:28:37.687Z,90.68
2023-02-03T16:34:08.526Z,90.47
2023-02-03T16:39:32.255Z,90.18
2023-02-03T16:44:53.709Z,90.50
2023-02-03T16:50:39.292Z,90.36
2023-02-03T16:55:47.119Z,90.49
2023-02-03T17:00:53.617Z,90.90
2023-02-03T17:06:04.155Z,91.14
2023-02-03T17:11:15.999Z,91.29
2023-02-03T17:16:25.529Z,91.50
2023-02-03T17:21:47.830Z,91.86
2023-02-03T17:27:02.504Z,92.44
2023-02-03T17:32:21.802Z,92.46
2023-02-03T17:37:27.881Z,92.13
2023-02-03T17:53:37.259Z,91.51
2023-02-03T17:58:46.699Z,91.59
2023-02-03T18:04:10.046Z,91.42
2023-02-03T18:09:26.048Z,91.23
2023-02-03T18:14:50.711Z,91.46
2023-02-03T18:20:00.888Z,91.21
2023-02-03T18:25:24.726Z,91.15
2023-02-03T18:30:50.143Z,90.93
2023-02-03T18:36:23.701Z,90.85
2023-02-03T18:41:37.007Z,90.92
2023-02-03T18:47:11.505Z,90.55
2023-02-03T18:52:19.962Z,90.51
2023-02-03T18:57:26.523Z,90.50
2023-02-03T19:02:43.246Z,90.48
2023-02-03T19:07:49.293Z,90.41
2023-02-03T19:12:52.420Z,90.47
2023-02-03T19:17:56.462Z,90.90
2023-02-03T19:23:09.197Z,90.85
2023-02-03T19:28:20.136Z,90.77
2023-02-03T19:33:30.974Z,90.84
2023-02-03T19:38:33.638Z,91.03
2023-02-03T19:43:37.545Z,91.20
2023-02-03T19:48:46.109Z,91.48
2023-02-03T19:53:59.001Z,91.43
2023-02-03T19:59:03.457Z,91.72
2023-02-03T20:04:07.741Z,91.98
2023-02-03T20:09:12.446Z,91.72
2023-02-03T20:14:19.673Z,91.43
2023-02-03T20:19:22.124Z,91.37
2023-02-03T20:24:37.482Z,91.56
2023-02-03T20:29:42.054Z,91.66
2023-02-03T20:34:46.871Z,91.55
2023-02-03T20:39:51.324Z,91.65
2023-02-03T20:44:56.258Z,91.55
2023-02-03T20:49:59.812Z,91.47
2023-02-03T20:55:16.980Z,91.83
2023-02-03T21:00:25.488Z,91.93
2023-02-03T21:05:37.947Z,91.90
2023-02-03T21:10:48.125Z,91.74
2023-02-03T21:15:55.008Z,91.97
2023-02-03T21:20:59.019Z,92.16
2023-02-03T21:26:01.835Z,92.18
2023-02-03T21:31:05.668Z,92.11
2023-02-03T21:36:24.449Z,92.13
2023-02-03T21:41:32.609Z,92.17
2023-02-03T21:46:37.391Z,92.10
2023-02-03T21:51:39.786Z,91.88
2023-02-03T21:56:43.042Z,91.80
2023-02-03T22:01:45.686Z,91.73
2023-02-03T22:06:53.974Z,91.81
2023-02-03T22:12:03.609Z,91.77
2023-02-03T22:17:14.279Z,91.77
2023-02-03T22:22:17.888Z,91.84
2023-02-03T22:27:25.216Z,91.95
2023-02-03T22:32:30.499Z,92.33
2023-02-03T22:37:36.105Z,92.28
2023-02-03T22:42:39.047Z,92.22
2023-02-03T22:47:42.789Z,92.26
2023-02-03T22:52:51.326Z,92.66
2023-02-03T22:58:02.357Z,92.35
2023-02-03T23:03:16.776Z,92.30
2023-02-03T23:08:21.643Z,92.32
2023-02-03T23:13:49.724Z,92.08
2023-02-03T23:19:03.635Z,92.41
2023-02-03T23:24:22.096Z,92.36
2023-02-03T23:29:33.007Z,92.53
2023-02-03T23:35:08.509Z,92.89
2023-02-03T23:40:15.870Z,93.08
2023-02-03T23:45:37.962Z,92.88
2023-02-03T23:50:50.069Z,93.07
2023-02-03T23:55:57.070Z,92.90
